Time;durP1;ratioP1;P1;durP2;ratioP2;P2;SDS_P1;SDS_P2;PMS_P1;PMS_P2;Temp;Humidity;BMP_temperature;BMP_pressure;BME280_temperature;BME280_humidity;BME280_pressure;Samples;Min_cycle;Max_cycle;Signal;HPM_P1;HPM_P2
2024/01/04 00:00:33;;;;;;;0.30;0.28;;;;;;;8.24;100.00;96269.97;2545559;29;20051;-91
2024/01/04 00:01:49;;;;;;;0.47;0.38;;;;;;;8.13;100.00;96264.47;2561797;28;20598;-91
2024/01/04 00:03:05;;;;;;;1.10;0.35;;;;;;;8.08;100.00;96276.88;2554140;29;20059;-92
2024/01/04 00:04:21;;;;;;;0.10;0.10;;;;;;;8.22;100.00;96273.56;2550667;28;20031;-92
2024/01/04 00:05:37;;;;;;;0.35;0.32;;;;;;;8.06;100.00;96274.38;2556030;28;20400;-92
2024/01/04 00:06:53;;;;;;;1.58;0.50;;;;;;;8.06;100.00;96274.38;2557284;28;20078;-91
2024/01/04 00:08:09;;;;;;;0.90;0.40;;;;;;;8.16;100.00;96277.31;2562625;28;20537;-92
2024/01/04 00:09:25;;;;;;;0.22;0.22;;;;;;;8.04;100.00;96271.84;2555960;28;20122;-91
2024/01/04 00:10:41;;;;;;;0.47;0.22;;;;;;;8.15;100.00;96278.25;2558569;28;20057;-91
2024/01/04 00:11:57;;;;;;;0.63;0.38;;;;;;;8.03;100.00;96277.13;2555502;28;20047;-93
2024/01/04 00:13:13;;;;;;;0.30;0.30;;;;;;;8.05;100.00;96285.72;2557646;28;20045;-91
2024/01/04 00:14:29;;;;;;;0.20;0.20;;;;;;;8.18;100.00;96278.94;2558694;28;20047;-92
2024/01/04 00:15:45;;;;;;;0.30;0.30;;;;;;;8.28;100.00;96279.28;2565277;28;20165;-91
2024/01/04 00:17:01;;;;;;;0.70;0.38;;;;;;;8.11;100.00;96274.97;2555690;29;20396;-92
2024/01/04 00:18:17;;;;;;;0.50;0.40;;;;;;;8.05;100.00;96270.09;2563711;28;20100;-92
2024/01/04 00:19:33;;;;;;;0.10;0.10;;;;;;;8.23;100.00;96277.84;2564670;28;20522;-91
2024/01/04 00:20:49;;;;;;;0.38;0.20;;;;;;;8.25;100.00;96283.81;2555342;29;20142;-92
2024/01/04 00:22:05;;;;;;;0.30;0.30;;;;;;;8.09;100.00;96275.97;2553593;28;20078;-92
2024/01/04 00:23:21;;;;;;;0.10;0.10;;;;;;;8.11;100.00;96274.97;2559186;28;20058;-91
2024/01/04 00:24:37;;;;;;;1.35;0.38;;;;;;;8.19;100.00;96280.63;2568704;28;20050;-92
2024/01/04 00:25:53;;;;;;;0.20;0.20;;;;;;;8.22;100.00;96284.81;2564190;28;20038;-92
2024/01/04 00:27:09;;;;;;;0.28;0.20;;;;;;;8.23;100.00;96270.84;2557786;28;20126;-91
2024/01/04 00:28:25;;;;;;;0.25;0.10;;;;;;;8.25;100.00;96278.59;2548330;29;20051;-92
2024/01/04 00:29:44;;;;;;;1.85;0.90;;;;;;;8.21;100.00;96283.13;2562787;28;20039;-91
2024/01/04 00:31:00;;;;;;;0.30;0.30;;;;;;;8.11;100.00;96288.00;2570058;28;20043;-92
2024/01/04 00:32:17;;;;;;;0.20;0.20;;;;;;;8.15;100.00;96278.25;2549912;29;20044;-91
2024/01/04 00:33:33;;;;;;;1.00;0.40;;;;;;;8.20;100.00;96281.44;2554334;28;20034;-91
2024/01/04 00:34:49;;;;;;;0.80;0.28;;;;;;;8.02;100.00;96278.03;2558253;28;20042;-91
2024/01/04 00:36:06;;;;;;;0.47;0.20;;;;;;;8.23;100.00;96283.06;2546939;29;20105;-92
2024/01/04 00:37:22;;;;;;;1.38;0.60;;;;;;;8.15;100.00;96283.47;2544078;29;20047;-91
2024/01/04 00:38:38;;;;;;;0.32;0.32;;;;;;;8.21;100.00;96275.31;2552499;28;20035;-92
2024/01/04 00:39:54;;;;;;;0.40;0.40;;;;;;;8.12;100.00;96274.03;2557307;28;20061;-91
2024/01/04 00:41:10;;;;;;;0.90;0.43;;;;;;;8.18;100.00;96278.09;2568908;28;20054;-92
2024/01/04 00:42:26;;;;;;;0.30;0.30;;;;;;;8.12;100.00;96284.47;2574989;28;20141;-91
2024/01/04 00:43:44;;;;;;;0.68;0.40;;;;;;;8.19;100.00;96282.38;2574667;28;20133;-91
2024/01/04 00:45:00;;;;;;;1.08;0.50;;;;;;;8.22;100.00;96289.19;2556284;29;20075;-92
2024/01/04 00:46:15;;;;;;;1.38;0.60;;;;;;;8.29;100.00;96293.16;2562558;28;20454;-90
2024/01/04 00:47:32;;;;;;;1.33;0.50;;;;;;;8.29;100.00;96285.31;2565248;28;20038;-91
2024/01/04 00:48:48;;;;;;;0.20;0.10;;;;;;;8.29;100.00;96287.94;2559867;28;20463;-90
2024/01/04 00:50:04;;;;;;;0.30;0.30;;;;;;;8.40;100.00;96301.25;2554160;29;20047;-92
2024/01/04 00:51:23;;;;;;;1.65;0.40;;;;;;;8.34;100.00;96291.97;2543618;29;20043;-92
2024/01/04 00:52:38;;;;;;;0.30;0.30;;;;;;;8.38;100.00;96287.44;2558701;28;20069;-92
2024/01/04 00:53:54;;;;;;;0.30;0.30;;;;;;;8.40;100.00;96287.38;2548938;29;20078;-92
2024/01/04 00:55:11;;;;;;;0.65;0.30;;;;;;;8.36;100.00;96278.00;2551314;28;20058;-92
2024/01/04 00:56:37;;;;;;;0.77;0.35;;;;;;;8.40;100.00;96292.59;2556720;28;20207;-91
2024/01/04 00:57:52;;;;;;;1.02;0.43;;;;;;;8.49;100.00;96281.63;2559200;28;20063;-91
2024/01/04 00:59:09;;;;;;;1.67;0.35;;;;;;;8.55;100.00;96286.56;2565980;28;20034;-91
2024/01/04 01:00:25;;;;;;;1.58;0.22;;;;;;;8.58;100.00;96283.78;2565572;28;20522;-91
2024/01/04 01:01:40;;;;;;;0.85;0.60;;;;;;;8.44;100.00;96281.06;2548250;29;20074;-92
2024/01/04 01:02:56;;;;;;;0.73;0.50;;;;;;;8.30;100.00;96276.56;2552821;28;20138;-92
2024/01/04 01:04:12;;;;;;;0.93;0.50;;;;;;;8.40;100.00;96287.38;2555040;29;20039;-92
2024/01/04 01:05:28;;;;;;;0.22;0.20;;;;;;;8.48;100.00;96290.38;2559131;28;20031;-92
2024/01/04 01:06:44;;;;;;;0.20;0.20;;;;;;;8.66;100.00;96287.72;2559091;28;20042;-90
2024/01/04 01:08:01;;;;;;;1.08;0.38;;;;;;;8.47;100.00;96284.34;2547448;29;20047;-92
2024/01/04 01:09:17;;;;;;;0.68;0.35;;;;;;;8.57;100.00;96286.47;2552683;28;20112;-92
2024/01/04 01:10:34;;;;;;;2.58;0.32;;;;;;;8.56;100.00;96280.44;2549827;29;20047;-92
2024/01/04 01:11:50;;;;;;;0.30;0.30;;;;;;;8.71;100.00;96294.38;2563562;28;20081;-91
2024/01/04 01:13:06;;;;;;;0.30;0.30;;;;;;;8.53;100.00;96279.75;2555670;29;20110;-91
2024/01/04 01:14:22;;;;;;;0.28;0.28;;;;;;;8.49;100.00;96284.25;2559459;28;20107;-92
2024/01/04 01:15:39;;;;;;;0.35;0.35;;;;;;;8.40;100.00;96292.59;2558240;28;20039;-91
2024/01/04 01:16:55;;;;;;;0.43;0.40;;;;;;;8.31;100.00;96299.97;2564935;28;20030;-91
2024/01/04 01:18:13;;;;;;;0.20;0.20;;;;;;;8.34;100.00;96297.19;2549325;29;20047;-91
2024/01/04 01:19:29;;;;;;;0.20;0.20;;;;;;;8.45;100.00;96285.34;2553998;29;20043;-92
2024/01/04 01:20:46;;;;;;;0.65;0.38;;;;;;;8.36;100.00;96301.47;2555870;28;20045;-91
2024/01/04 01:22:02;;;;;;;0.52;0.20;;;;;;;8.35;100.00;96287.63;2553943;29;20055;-91
2024/01/04 01:23:20;;;;;;;0.60;0.40;;;;;;;8.39;100.00;96296.13;2565294;28;20042;-92
2024/01/04 01:24:36;;;;;;;0.45;0.25;;;;;;;8.43;100.00;96297.63;2563556;28;20043;-91
2024/01/04 01:25:52;;;;;;;0.20;0.20;;;;;;;8.48;100.00;96299.06;2554572;29;20050;-92
2024/01/04 01:27:08;;;;;;;0.35;0.25;;;;;;;8.45;100.00;96293.19;2551361;28;20047;-92
2024/01/04 01:28:25;;;;;;;0.95;0.35;;;;;;;8.55;100.00;96298.75;2547675;29;20625;-92
2024/01/04 01:29:41;;;;;;;0.77;0.40;;;;;;;8.58;100.00;96304.66;2559488;28;20053;-90
2024/01/04 01:31:00;;;;;;;0.52;0.30;;;;;;;8.39;100.00;96296.13;2566200;28;20034;-90
2024/01/04 01:32:16;;;;;;;0.10;0.10;;;;;;;8.45;100.00;96296.63;2564089;28;20526;-92
2024/01/04 01:33:32;;;;;;;0.30;0.30;;;;;;;8.34;100.00;96297.19;2560503;28;20047;-93
2024/01/04 01:34:48;;;;;;;0.20;0.20;;;;;;;8.51;100.00;96295.47;2559706;28;20426;-91
2024/01/04 01:36:06;;;;;;;0.30;0.22;;;;;;;8.37;100.00;96287.50;2558310;28;20039;-92
2024/01/04 01:37:22;;;;;;;0.30;0.30;;;;;;;8.42;100.00;96277.69;2558687;28;20043;-92
2024/01/04 01:38:39;;;;;;;1.30;0.30;;;;;;;8.43;100.00;96290.63;2564486;28;20086;-91
2024/01/04 01:39:55;;;;;;;0.40;0.40;;;;;;;8.32;100.00;96288.63;2573579;28;20414;-92
2024/01/04 01:41:10;;;;;;;0.20;0.20;;;;;;;8.39;100.00;96290.91;2570047;28;20441;-92
2024/01/04 01:42:27;;;;;;;1.13;0.30;;;;;;;8.43;100.00;96297.63;2564681;28;20053;-92
2024/01/04 01:43:43;;;;;;;0.10;0.10;;;;;;;8.40;100.00;96305.63;2549061;29;20071;-92
2024/01/04 01:45:00;;;;;;;0.65;0.38;;;;;;;8.37;100.00;96295.34;2551885;28;20046;-93
2024/01/04 01:46:16;;;;;;;0.52;0.40;;;;;;;8.21;100.00;96285.72;2567411;28;20125;-91
2024/01/04 01:47:32;;;;;;;1.20;0.40;;;;;;;8.36;100.00;96301.47;2564771;28;20035;-92
2024/01/04 01:48:48;;;;;;;0.50;0.40;;;;;;;8.26;100.00;96303.75;2567812;28;20657;-92
2024/01/04 01:50:06;;;;;;;0.20;0.20;;;;;;;8.44;100.00;96304.53;2563505;28;20063;-90
2024/01/04 01:51:22;;;;;;;0.73;0.32;;;;;;;8.30;100.00;96297.44;2553713;29;20043;-92
2024/01/04 01:52:38;;;;;;;0.38;0.38;;;;;;;8.31;100.00;96299.97;2551146;28;20039;-90
2024/01/04 01:53:56;;;;;;;0.25;0.25;;;;;;;8.34;100.00;96309.41;2540880;29;20044;-91
2024/01/04 01:55:13;;;;;;;0.28;0.28;;;;;;;8.34;100.00;96301.59;2560141;28;20054;-92
2024/01/04 01:56:30;;;;;;;0.30;0.30;;;;;;;8.47;100.00;96306.97;2564427;28;20050;-91
2024/01/04 01:57:47;;;;;;;0.15;0.10;;;;;;;8.35;100.00;96308.47;2559789;28;20042;-92
2024/01/04 01:59:03;;;;;;;0.40;0.30;;;;;;;8.17;100.00;96310.28;2557366;28;20113;-91
2024/01/04 02:00:19;;;;;;;0.50;0.43;;;;;;;8.32;100.00;96311.25;2563598;28;20088;-91
2024/01/04 02:01:35;;;;;;;0.13;0.13;;;;;;;8.44;100.00;96317.56;2551741;29;20051;-92
2024/01/04 02:02:52;;;;;;;0.40;0.20;;;;;;;8.26;100.00;96324.59;2555645;28;20046;-91
2024/01/04 02:04:08;;;;;;;1.30;0.32;;;;;;;8.25;100.00;96321.16;2551919;29;20459;-91
2024/01/04 02:05:24;;;;;;;0.10;0.10;;;;;;;8.36;100.00;96324.94;2543212;29;20047;-92
2024/01/04 02:06:40;;;;;;;0.10;0.10;;;;;;;8.26;100.00;96328.06;2552796;28;20039;-91
2024/01/04 02:07:56;;;;;;;0.38;0.20;;;;;;;8.31;100.00;96320.81;2557361;28;20043;-94
2024/01/04 02:09:13;;;;;;;0.15;0.10;;;;;;;8.15;100.00;96326.00;2558406;28;20038;-91
2024/01/04 02:10:29;;;;;;;0.22;0.22;;;;;;;8.02;100.00;96323.19;2564777;28;20187;-92
2024/01/04 02:11:45;;;;;;;0.22;0.20;;;;;;;8.12;100.00;96325.34;2562453;28;20059;-91
2024/01/04 02:13:01;;;;;;;0.20;0.20;;;;;;;8.11;100.00;96329.69;2559136;28;20046;-91
2024/01/04 02:14:17;;;;;;;0.85;0.50;;;;;;;8.17;100.00;96318.09;2565020;28;20035;-91
2024/01/04 02:15:34;;;;;;;0.10;0.10;;;;;;;8.00;100.00;96314.63;2563072;28;20045;-91
2024/01/04 02:16:50;;;;;;;0.65;0.20;;;;;;;8.16;100.00;96332.91;2548619;29;20043;-92
2024/01/04 02:18:07;;;;;;;0.25;0.25;;;;;;;7.88;100.00;96312.66;2550192;28;20066;-92
2024/01/04 02:19:26;;;;;;;0.60;0.17;;;;;;;8.09;100.00;96326.34;2559230;28;20460;-93
2024/01/04 02:20:42;;;;;;;0.43;0.20;;;;;;;7.96;100.00;96322.69;2546004;29;20098;-91
2024/01/04 02:22:00;;;;;;;0.10;0.10;;;;;;;7.96;100.00;96326.13;2542465;29;20078;-92
2024/01/04 02:23:17;;;;;;;0.10;0.10;;;;;;;8.00;100.00;96326.81;2557311;28;20085;-92
2024/01/04 02:24:33;;;;;;;0.30;0.30;;;;;;;7.96;100.00;96327.88;2553102;29;20043;-91
2024/01/04 02:25:49;;;;;;;1.02;0.15;;;;;;;7.97;100.00;96322.59;2551315;29;20051;-91
2024/01/04 02:27:05;;;;;;;0.25;0.25;;;;;;;7.88;100.00;96321.28;2552251;28;20086;-91
2024/01/04 02:28:21;;;;;;;0.20;0.20;;;;;;;8.08;100.00;96339.44;2547411;29;20078;-91
2024/01/04 02:29:37;;;;;;;0.38;0.20;;;;;;;7.92;100.00;96335.00;2558240;28;20046;-91
2024/01/04 02:30:53;;;;;;;0.10;0.10;;;;;;;7.95;100.00;96324.44;2548184;29;20051;-91
2024/01/04 02:32:09;;;;;;;0.13;0.13;;;;;;;8.15;100.00;96340.81;2550614;28;20043;-92
2024/01/04 02:33:28;;;;;;;0.20;0.20;;;;;;;7.89;100.00;96324.75;2564607;28;20047;-93
2024/01/04 02:34:44;;;;;;;0.20;0.20;;;;;;;8.03;100.00;96337.06;2558001;28;20043;-92
2024/01/04 02:36:00;;;;;;;1.38;0.40;;;;;;;7.84;100.00;96330.19;2562117;28;20101;-91
2024/01/04 02:37:16;;;;;;;0.38;0.20;;;;;;;7.94;100.00;96329.75;2553832;29;20114;-91
2024/01/04 02:38:32;;;;;;;0.70;0.20;;;;;;;8.05;100.00;96338.66;2551863;28;20051;-91
2024/01/04 02:39:48;;;;;;;0.30;0.30;;;;;;;7.87;100.00;96331.81;2558139;28;20043;-91
2024/01/04 02:41:04;;;;;;;0.47;0.22;;;;;;;8.03;100.00;96330.09;2558658;28;20047;-91
2024/01/04 02:42:19;;;;;;;0.30;0.30;;;;;;;7.94;100.00;96329.75;2557312;28;20130;-91
2024/01/04 02:43:35;;;;;;;0.40;0.30;;;;;;;7.94;100.00;96325.34;2556361;28;20503;-92
2024/01/04 02:44:52;;;;;;;0.20;0.20;;;;;;;8.01;100.00;96328.47;2558191;28;20039;-91
2024/01/04 02:46:08;;;;;;;1.35;0.32;;;;;;;7.93;100.00;96326.28;2567103;28;20050;-91
2024/01/04 02:47:24;;;;;;;0.45;0.30;;;;;;;8.01;100.00;96337.16;2554785;29;20049;-93
2024/01/04 02:48:40;;;;;;;0.77;0.30;;;;;;;8.09;100.00;96308.09;2552963;28;20053;-90
2024/01/04 02:49:56;;;;;;;0.65;0.30;;;;;;;8.11;100.00;96323.66;2557227;28;20193;-90
2024/01/04 02:51:12;;;;;;;0.98;0.40;;;;;;;7.98;100.00;96313.88;2553692;29;20043;-90
2024/01/04 02:52:28;;;;;;;0.75;0.20;;;;;;;8.16;100.00;96319.03;2552472;28;20039;-92
2024/01/04 02:53:44;;;;;;;1.38;0.40;;;;;;;8.06;100.00;96306.47;2568541;28;20065;-90
2024/01/04 02:55:00;;;;;;;1.50;0.60;;;;;;;7.95;100.00;96303.59;2554308;28;20048;-90
2024/01/04 02:56:17;;;;;;;0.38;0.20;;;;;;;8.10;100.00;96304.56;2541877;29;20047;-91
2024/01/04 02:57:33;;;;;;;0.75;0.20;;;;;;;8.33;100.00;96308.53;2540431;29;20089;-91
2024/01/04 02:58:49;;;;;;;1.95;0.40;;;;;;;8.11;100.00;96308.03;2552414;29;20062;-91
2024/01/04 03:00:07;;;;;;;0.45;0.32;;;;;;;8.13;100.00;96309.59;2543611;29;20413;-90
2024/01/04 03:01:23;;;;;;;0.22;0.22;;;;;;;8.02;100.00;96304.97;2550702;28;20219;-91
2024/01/04 03:02:39;;;;;;;3.30;0.40;;;;;;;8.04;100.00;96329.16;2548447;29;20039;-90
2024/01/04 03:03:55;;;;;;;0.82;0.30;;;;;;;7.83;100.00;96317.28;2553701;28;20454;-92
2024/01/04 03:05:11;;;;;;;0.30;0.20;;;;;;;7.84;100.00;96316.34;2559916;28;20055;-92
2024/01/04 03:06:30;;;;;;;0.52;0.20;;;;;;;7.90;100.00;96318.63;2549127;29;20035;-91
2024/01/04 03:07:46;;;;;;;0.40;0.22;;;;;;;7.81;100.00;96309.53;2552144;28;20127;-90
2024/01/04 03:09:02;;;;;;;1.73;0.52;;;;;;;7.74;100.00;96315.94;2547878;29;20047;-89
2024/01/04 03:10:18;;;;;;;0.55;0.35;;;;;;;7.73;100.00;96315.13;2546727;29;20101;-91
2024/01/04 03:11:35;;;;;;;0.85;0.40;;;;;;;7.65;100.00;96299.03;2560841;28;20054;-91
2024/01/04 03:12:51;;;;;;;0.20;0.20;;;;;;;7.83;100.00;96319.88;2563391;28;20047;-91
2024/01/04 03:14:07;;;;;;;0.22;0.20;;;;;;;7.81;100.00;96327.75;2548540;29;20064;-90
2024/01/04 03:15:23;;;;;;;1.05;0.45;;;;;;;7.94;100.00;96330.56;2545023;29;20044;-92
2024/01/04 03:16:39;;;;;;;0.32;0.20;;;;;;;7.91;100.00;96330.72;2562247;28;20038;-90
2024/01/04 03:17:59;;;;;;;0.80;0.60;;;;;;;7.84;100.00;96317.16;2563240;28;20145;-91
2024/01/04 03:19:15;;;;;;;0.30;0.20;;;;;;;7.86;100.00;96314.50;2554662;29;20048;-91
2024/01/04 03:20:31;;;;;;;0.45;0.32;;;;;;;7.84;100.00;96321.56;2551443;28;20114;-91
2024/01/04 03:21:47;;;;;;;0.80;0.35;;;;;;;7.81;100.00;96322.53;2568050;28;20113;-91
2024/01/04 03:23:03;;;;;;;1.95;0.30;;;;;;;7.83;100.00;96318.09;2552861;29;20066;-91
2024/01/04 03:24:19;;;;;;;0.43;0.20;;;;;;;7.81;100.00;96321.69;2550399;28;20134;-91
2024/01/04 03:25:34;;;;;;;0.60;0.38;;;;;;;7.70;100.00;96314.44;2555749;28;20042;-91
2024/01/04 03:26:50;;;;;;;1.13;0.50;;;;;;;7.69;100.00;96312.75;2552473;29;20050;-91
2024/01/04 03:28:07;;;;;;;0.75;0.75;;;;;;;7.74;100.00;96300.31;2553942;28;20086;-91
2024/01/04 03:29:23;;;;;;;1.10;0.40;;;;;;;7.84;100.00;96308.53;2558415;28;20070;-91
2024/01/04 03:30:39;;;;;;;0.93;0.30;;;;;;;7.84;100.00;96303.31;2567402;28;20049;-91
2024/01/04 03:31:55;;;;;;;0.10;0.10;;;;;;;7.98;100.00;96307.81;2556810;29;20242;-91
2024/01/04 03:33:11;;;;;;;0.47;0.40;;;;;;;7.82;100.00;96302.53;2543914;29;20082;-92
2024/01/04 03:34:28;;;;;;;0.20;0.17;;;;;;;7.95;100.00;96307.97;2540692;29;20044;-90
2024/01/04 03:35:44;;;;;;;0.98;0.50;;;;;;;7.84;100.00;96298.09;2547625;29;20051;-91
2024/01/04 03:37:00;;;;;;;0.30;0.30;;;;;;;7.85;100.00;96308.44;2552572;28;20047;-92
2024/01/04 03:38:16;;;;;;;0.40;0.40;;;;;;;7.92;100.00;96298.53;2553248;29;20050;-91
2024/01/04 03:39:32;;;;;;;0.60;0.40;;;;;;;7.83;100.00;96312.06;2555570;28;20042;-91
2024/01/04 03:40:47;;;;;;;0.73;0.32;;;;;;;7.91;100.00;96308.13;2562490;28;20050;-91
2024/01/04 03:42:04;;;;;;;0.68;0.50;;;;;;;7.84;100.00;96287.69;2560507;28;20047;-91
2024/01/04 03:43:20;;;;;;;1.25;0.30;;;;;;;8.08;100.00;96308.16;2546933;29;20106;-91
2024/01/04 03:44:37;;;;;;;0.93;0.47;;;;;;;7.84;100.00;96301.53;2552187;28;20046;-90
2024/01/04 03:45:53;;;;;;;3.67;0.70;;;;;;;7.98;100.00;96311.25;2557523;28;20043;-91
2024/01/04 03:47:09;;;;;;;0.85;0.50;;;;;;;7.95;100.00;96321.81;2556455;28;20101;-91
2024/01/04 03:48:25;;;;;;;4.60;0.70;;;;;;;8.02;100.00;96315.38;2548430;29;20043;-91
2024/01/04 03:49:41;;;;;;;0.80;0.50;;;;;;;8.05;100.00;96303.97;2551714;28;20103;-91
2024/01/04 03:50:57;;;;;;;0.50;0.40;;;;;;;7.99;100.00;96320.75;2568571;28;20061;-92
2024/01/04 03:52:14;;;;;;;0.85;0.40;;;;;;;8.22;100.00;96310.06;2563292;28;20066;-91
2024/01/04 03:53:31;;;;;;;1.40;0.70;;;;;;;8.14;100.00;96307.84;2552421;29;20099;-91
2024/01/04 03:54:47;;;;;;;1.70;0.30;;;;;;;8.19;100.00;96311.03;2546956;29;20101;-92
2024/01/04 03:56:04;;;;;;;0.60;0.30;;;;;;;8.20;100.00;96313.59;2560949;28;20047;-90
2024/01/04 03:57:20;;;;;;;0.73;0.30;;;;;;;8.27;100.00;96313.25;2557214;28;20490;-92
2024/01/04 03:58:37;;;;;;;0.35;0.30;;;;;;;8.20;100.00;96317.94;2554439;29;20047;-92
2024/01/04 03:59:53;;;;;;;0.40;0.40;;;;;;;8.18;100.00;96320.66;2553578;28;20042;-91
2024/01/04 04:01:09;;;;;;;0.50;0.50;;;;;;;8.29;100.00;96324.44;2545973;29;20055;-91
2024/01/04 04:02:26;;;;;;;2.35;0.50;;;;;;;8.18;100.00;96310.22;2551319;28;20053;-90
2024/01/04 04:03:42;;;;;;;0.47;0.30;;;;;;;8.19;100.00;96314.50;2558610;28;20039;-90
2024/01/04 04:04:58;;;;;;;2.33;0.43;;;;;;;8.28;100.00;96325.34;2546866;29;20067;-90
2024/01/04 04:06:18;;;;;;;0.73;0.50;;;;;;;8.20;100.00;96320.56;2547481;29;20059;-90
2024/01/04 04:07:36;;;;;;;1.10;0.50;;;;;;;8.23;100.00;96322.16;2553840;28;20151;-92
2024/01/04 04:08:52;;;;;;;2.45;0.43;;;;;;;8.32;100.00;96319.91;2558136;28;20542;-91
2024/01/04 04:10:08;;;;;;;0.30;0.20;;;;;;;8.29;100.00;96314.84;2546917;29;20048;-91
2024/01/04 04:11:24;;;;;;;0.38;0.25;;;;;;;8.23;100.00;96327.38;2543586;29;20138;-91
2024/01/04 04:12:40;;;;;;;0.30;0.20;;;;;;;8.26;100.00;96324.59;2542970;29;20050;-91
2024/01/04 04:13:56;;;;;;;0.25;0.25;;;;;;;8.29;100.00;96327.03;2560722;28;20429;-91
2024/01/04 04:15:12;;;;;;;0.55;0.40;;;;;;;8.28;100.00;96328.81;2549646;29;20054;-91
2024/01/04 04:16:28;;;;;;;0.30;0.30;;;;;;;8.26;100.00;96337.63;2555967;28;20126;-91
2024/01/04 04:17:45;;;;;;;0.50;0.30;;;;;;;8.25;100.00;96329.00;2567850;28;20250;-91
2024/01/04 04:19:01;;;;;;;1.00;0.63;;;;;;;8.20;100.00;96320.56;2567485;28;20030;-91
2024/01/04 04:20:17;;;;;;;1.05;0.57;;;;;;;8.25;100.00;96323.78;2563326;28;20075;-91
2024/01/04 04:21:32;;;;;;;0.30;0.30;;;;;;;8.23;100.00;96333.41;2557886;28;20039;-91
2024/01/04 04:22:49;;;;;;;0.80;0.40;;;;;;;8.29;100.00;96322.69;2553586;29;20097;-91
2024/01/04 04:24:06;;;;;;;0.40;0.30;;;;;;;8.11;100.00;96326.25;2547657;29;20050;-91
2024/01/04 04:25:22;;;;;;;1.27;0.40;;;;;;;8.12;100.00;96327.94;2547001;29;20039;-90
2024/01/04 04:26:38;;;;;;;0.55;0.40;;;;;;;8.22;100.00;96328.31;2545190;29;20047;-91
2024/01/04 04:27:54;;;;;;;1.05;0.40;;;;;;;8.27;100.00;96334.97;2548825;29;20063;-91
2024/01/04 04:29:10;;;;;;;0.57;0.40;;;;;;;8.27;100.00;96340.16;2552358;28;20051;-92
2024/01/04 04:30:27;;;;;;;0.60;0.40;;;;;;;8.31;100.00;96340.81;2548728;29;20054;-91
2024/01/04 04:31:43;;;;;;;0.52;0.40;;;;;;;8.23;100.00;96337.81;2556164;28;20046;-90
2024/01/04 04:32:59;;;;;;;0.22;0.13;;;;;;;8.32;100.00;96335.53;2558996;28;20086;-91
2024/01/04 04:34:14;;;;;;;1.17;0.57;;;;;;;8.15;100.00;96325.16;2557005;28;20513;-90
2024/01/04 04:35:30;;;;;;;0.68;0.40;;;;;;;8.32;100.00;96335.53;2546921;29;20063;-90
2024/01/04 04:36:47;;;;;;;0.20;0.20;;;;;;;8.32;100.00;96321.69;2552995;28;20395;-91
2024/01/04 04:38:05;;;;;;;0.55;0.50;;;;;;;8.11;100.00;96324.47;2556103;28;20049;-90
2024/01/04 04:39:21;;;;;;;1.10;0.30;;;;;;;8.31;100.00;96333.00;2556396;28;20494;-91
2024/01/04 04:40:37;;;;;;;0.57;0.47;;;;;;;8.37;100.00;96339.66;2553524;29;20052;-91
2024/01/04 04:41:53;;;;;;;0.50;0.40;;;;;;;8.22;100.00;96323.91;2548349;29;20044;-91
2024/01/04 04:43:09;;;;;;;0.30;0.30;;;;;;;8.23;100.00;96325.59;2556489;28;20055;-92
2024/01/04 04:44:25;;;;;;;2.05;0.50;;;;;;;8.09;100.00;96328.09;2569992;28;20463;-92
2024/01/04 04:45:41;;;;;;;0.28;0.20;;;;;;;8.10;100.00;96329.75;2557803;28;20109;-90
2024/01/04 04:46:58;;;;;;;0.25;0.20;;;;;;;8.16;100.00;96322.47;2560344;28;20034;-92
2024/01/04 04:48:14;;;;;;;0.40;0.30;;;;;;;8.07;100.00;96312.53;2552383;28;20048;-91
2024/01/04 04:49:30;;;;;;;0.98;0.35;;;;;;;8.08;100.00;96321.19;2540638;29;20090;-91
2024/01/04 04:50:48;;;;;;;0.85;0.50;;;;;;;7.89;100.00;96330.81;2552182;28;20070;-90
2024/01/04 04:52:04;;;;;;;0.52;0.45;;;;;;;7.92;100.00;96340.22;2566752;28;20047;-90
2024/01/04 04:53:22;;;;;;;0.63;0.38;;;;;;;7.92;100.00;96311.56;2557988;28;20054;-91
2024/01/04 04:54:38;;;;;;;0.30;0.30;;;;;;;7.93;100.00;96321.06;2560186;28;20059;-91
2024/01/04 04:55:54;;;;;;;2.15;0.50;;;;;;;8.02;100.00;96318.00;2564697;28;20043;-91
2024/01/04 04:57:09;;;;;;;0.30;0.30;;;;;;;7.91;100.00;96310.75;2558370;28;20043;-91
2024/01/04 04:58:25;;;;;;;0.63;0.30;;;;;;;7.90;100.00;96334.25;2542648;29;20043;-91
2024/01/04 04:59:41;;;;;;;0.90;0.40;;;;;;;7.93;100.00;96315.84;2558526;28;20499;-93
2024/01/04 05:00:57;;;;;;;0.20;0.20;;;;;;;8.02;100.00;96336.22;2559882;28;20058;-90
2024/01/04 05:02:14;;;;;;;0.43;0.30;;;;;;;7.96;100.00;96330.50;2565249;28;20027;-90
2024/01/04 05:03:30;;;;;;;0.20;0.20;;;;;;;7.87;100.00;96339.63;2566403;28;20491;-91
2024/01/04 05:04:46;;;;;;;0.28;0.25;;;;;;;7.84;100.00;96331.97;2558076;28;20047;-90
2024/01/04 05:06:02;;;;;;;0.10;0.10;;;;;;;8.02;100.00;96331.03;2549219;29;20538;-92
2024/01/04 05:07:18;;;;;;;1.33;0.38;;;;;;;7.74;100.00;96326.38;2562716;28;20058;-91
2024/01/04 05:08:34;;;;;;;0.20;0.20;;;;;;;7.80;100.00;96325.22;2563810;28;20065;-91
2024/01/04 05:09:53;;;;;;;0.20;0.20;;;;;;;7.87;100.00;96335.25;2559883;28;20031;-89
2024/01/04 05:11:09;;;;;;;0.52;0.38;;;;;;;7.80;100.00;96325.22;2563315;28;20070;-92
2024/01/04 05:12:25;;;;;;;0.13;0.13;;;;;;;7.99;100.00;96348.56;2551194;29;20503;-90
2024/01/04 05:13:41;;;;;;;0.13;0.13;;;;;;;7.96;100.00;96351.34;2554154;28;20097;-90
2024/01/04 05:14:58;;;;;;;0.30;0.22;;;;;;;7.77;100.00;96334.06;2561684;28;20038;-90
2024/01/04 05:16:16;;;;;;;0.20;0.20;;;;;;;7.80;100.00;96351.25;2567846;28;20121;-91
2024/01/04 05:17:32;;;;;;;0.32;0.30;;;;;;;7.79;100.00;96360.88;2562759;28;20197;-90
2024/01/04 05:18:48;;;;;;;0.40;0.35;;;;;;;7.72;100.00;96351.66;2549311;29;20557;-90
2024/01/04 05:20:05;;;;;;;0.60;0.28;;;;;;;7.76;100.00;96358.41;2558799;28;20122;-90
2024/01/04 05:21:21;;;;;;;0.20;0.17;;;;;;;7.82;100.00;96359.84;2553333;29;20510;-90
2024/01/04 05:22:38;;;;;;;0.10;0.10;;;;;;;7.77;100.00;96360.09;2552532;28;20050;-90
2024/01/04 05:23:53;;;;;;;0.52;0.43;;;;;;;7.90;100.00;96357.69;2550082;29;20731;-91
2024/01/04 05:25:13;;;;;;;0.80;0.30;;;;;;;7.89;100.00;96367.31;2552819;29;20415;-90
2024/01/04 05:26:28;;;;;;;0.55;0.30;;;;;;;7.81;100.00;96352.94;2543994;29;20567;-88
2024/01/04 05:27:44;;;;;;;0.52;0.35;;;;;;;7.98;100.00;96359.91;2551404;28;20051;-91
2024/01/04 05:29:01;;;;;;;1.00;0.40;;;;;;;7.79;100.00;96350.44;2548978;29;20082;-91
2024/01/04 05:30:17;;;;;;;0.20;0.20;;;;;;;7.86;100.00;96340.56;2553418;28;20043;-91
2024/01/04 05:31:33;;;;;;;0.20;0.20;;;;;;;7.84;100.00;96355.44;2548594;29;20053;-90
2024/01/04 05:32:49;;;;;;;1.33;0.30;;;;;;;7.92;100.00;96363.69;2548590;29;20562;-90
2024/01/04 05:34:05;;;;;;;0.88;0.55;;;;;;;7.76;100.00;96364.44;2552752;29;20051;-92
2024/01/04 05:35:21;;;;;;;0.45;0.30;;;;;;;7.77;100.00;96373.94;2554725;29;20115;-91
2024/01/04 05:36:37;;;;;;;2.35;0.57;;;;;;;7.85;100.00;96372.75;2548265;29;20126;-91
2024/01/04 05:37:56;;;;;;;0.50;0.35;;;;;;;7.67;100.00;96357.09;2557028;28;20082;-91
2024/01/04 05:39:12;;;;;;;0.80;0.35;;;;;;;7.74;100.00;96383.66;2558910;28;20043;-90
2024/01/04 05:40:28;;;;;;;0.57;0.50;;;;;;;7.68;100.00;96378.78;2563688;28;20276;-90
2024/01/04 05:41:44;;;;;;;1.08;0.50;;;;;;;7.62;100.00;96377.31;2557272;28;20053;-91
2024/01/04 05:43:00;;;;;;;0.98;0.52;;;;;;;7.63;100.00;96381.63;2557651;28;20142;-91
2024/01/04 05:44:16;;;;;;;0.43;0.30;;;;;;;7.53;100.00;96380.38;2559236;28;20043;-91
2024/01/04 05:45:32;;;;;;;0.32;0.28;;;;;;;7.43;100.00;96395.59;2548468;29;20046;-92
2024/01/04 05:46:48;;;;;;;0.32;0.30;;;;;;;7.38;100.00;96377.59;2561750;28;20587;-91
2024/01/04 05:48:10;;;;;;;0.40;0.40;;;;;;;7.35;100.00;96386.41;2556554;28;20071;-91
2024/01/04 05:49:26;;;;;;;0.35;0.35;;;;;;;7.37;100.00;96399.34;2557001;28;20511;-91
2024/01/04 05:50:45;;;;;;;1.15;0.38;;;;;;;7.38;100.00;96401.03;2560988;28;20073;-90
2024/01/04 05:52:04;;;;;;;0.85;0.40;;;;;;;7.32;100.00;96402.16;2561704;28;20471;-92
2024/01/04 05:53:20;;;;;;;0.80;0.20;;;;;;;7.35;100.00;96401.19;2559286;28;20050;-91
2024/01/04 05:54:36;;;;;;;0.40;0.40;;;;;;;7.18;100.00;96392.44;2564363;28;20113;-91
2024/01/04 05:55:52;;;;;;;0.35;0.35;;;;;;;7.25;100.00;96402.53;2553884;29;20667;-91
2024/01/04 05:57:08;;;;;;;0.50;0.50;;;;;;;7.35;100.00;96398.56;2561351;28;20093;-91
2024/01/04 05:58:24;;;;;;;0.30;0.30;;;;;;;7.27;100.00;96403.31;2572550;28;20057;-91
2024/01/04 05:59:40;;;;;;;0.70;0.30;;;;;;;7.16;100.00;96409.88;2560660;28;20035;-91